Time;durP1;ratioP1;P1;durP2;ratioP2;P2;SDS_P1;SDS_P2;PMS_P1;PMS_P2;Temp;Humidity;BMP_temperature;BMP_pressure;BME280_temperature;BME280_humidity;BME280_pressure;Samples;Min_cycle;Max_cycle;Signal;HPM_P1;HPM_P2
2021/12/20 00:00:20;;;;;;;25.40;3.45;;;;;;;5.85;100.00;102583.19;4947195;28;20050;-76
2021/12/20 00:02:51;;;;;;;26.77;3.05;;;;;;;5.50;100.00;102560.94;4979681;28;20097;-77
2021/12/20 00:05:19;;;;;;;26.33;3.58;;;;;;;5.36;100.00;102566.66;4950082;28;20031;-76
2021/12/20 00:07:45;;;;;;;22.52;3.47;;;;;;;5.46;100.00;102586.38;4952128;28;20042;-77
2021/12/20 00:10:12;;;;;;;36.15;3.72;;;;;;;5.30;100.00;102577.38;4986673;28;20035;-77
2021/12/20 00:12:38;;;;;;;21.92;3.78;;;;;;;5.42;100.00;102566.44;4967856;28;20034;-77
2021/12/20 00:15:14;;;;;;;28.75;3.40;;;;;;;5.62;100.00;102571.78;4958368;28;20046;-77
2021/12/20 00:17:43;;;;;;;21.67;3.28;;;;;;;5.64;100.00;102554.25;4973059;28;20432;-76
2021/12/20 00:20:19;;;;;;;22.33;2.85;;;;;;;5.48;100.00;102539.19;4949573;28;20038;-76
2021/12/20 00:22:45;;;;;;;20.63;2.73;;;;;;;5.32;100.00;102526.66;4945535;28;20031;-76
2021/12/20 00:25:11;;;;;;;21.15;2.90;;;;;;;5.75;100.00;102582.69;4976737;28;20081;-76
2021/12/20 00:27:38;;;;;;;28.98;3.53;;;;;;;5.43;100.00;102541.97;4977706;28;20377;-76
2021/12/20 00:30:05;;;;;;;23.73;3.80;;;;;;;5.58;100.00;102540.53;4944837;28;20089;-76
2021/12/20 00:32:31;;;;;;;28.52;4.22;;;;;;;5.94;100.00;102567.13;4960807;28;20381;-76
2021/12/20 00:34:57;;;;;;;30.35;4.28;;;;;;;5.75;100.00;102559.09;4978111;28;20027;-76
2021/12/20 00:40:20;;;;;;;27.63;4.32;;;;;;;6.03;100.00;102561.50;4965102;28;20033;-76
2021/12/20 00:42:47;;;;;;;32.38;3.78;;;;;;;5.88;100.00;102541.09;4992065;28;20509;-76
2021/12/20 00:45:14;;;;;;;25.27;3.50;;;;;;;5.70;100.00;102555.81;4949410;28;20362;-76
2021/12/20 00:47:41;;;;;;;27.55;3.47;;;;;;;5.72;100.00;102540.00;4978313;28;20023;-76
2021/12/20 00:50:09;;;;;;;25.92;3.47;;;;;;;5.58;100.00;102569.34;4978228;28;20041;-77
2021/12/20 00:52:34;;;;;;;25.80;3.58;;;;;;;5.44;100.00;102507.00;4978402;28;20038;-77
2021/12/20 00:55:00;;;;;;;25.45;3.38;;;;;;;5.39;100.00;102519.41;4978292;28;20031;-77
2021/12/20 00:57:26;;;;;;;30.75;3.58;;;;;;;5.79;100.00;102559.81;4976792;28;20043;-77
2021/12/20 00:59:52;;;;;;;26.38;3.40;;;;;;;5.42;100.00;102514.91;4977145;28;20026;-76
2021/12/20 01:02:21;;;;;;;28.33;4.43;;;;;;;5.44;100.00;102518.31;4961281;28;20026;-76
2021/12/20 01:04:46;;;;;;;28.45;3.53;;;;;;;5.38;100.00;102559.59;4945206;28;20031;-77
2021/12/20 01:07:12;;;;;;;22.00;3.70;;;;;;;5.28;100.00;102543.38;4978669;28;20055;-77
2021/12/20 01:09:38;;;;;;;26.38;3.85;;;;;;;5.27;100.00;102560.03;4978571;28;20046;-77
2021/12/20 01:12:14;;;;;;;26.05;3.33;;;;;;;5.10;100.00;102549.28;4944586;28;20074;-77
2021/12/20 01:14:46;;;;;;;27.35;4.18;;;;;;;5.43;100.00;102565.56;4960539;28;20093;-76
2021/12/20 01:17:12;;;;;;;24.95;3.50;;;;;;;5.14;100.00;102543.88;4944784;28;20026;-77
2021/12/20 01:19:41;;;;;;;23.25;3.00;;;;;;;5.02;100.00;102526.88;4944133;28;20022;-77
2021/12/20 01:22:09;;;;;;;26.98;3.05;;;;;;;5.06;100.00;102531.97;4977348;28;20057;-76
2021/12/20 01:24:38;;;;;;;22.17;3.97;;;;;;;5.03;100.00;102530.31;4977848;28;20035;-77
2021/12/20 01:27:04;;;;;;;25.85;3.72;;;;;;;5.25;100.00;102558.38;4977361;28;20080;-77
2021/12/20 01:29:32;;;;;;;27.80;3.38;;;;;;;5.26;100.00;102554.84;4959220;28;20023;-77
2021/12/20 01:32:01;;;;;;;28.80;3.78;;;;;;;4.68;100.00;102521.97;4943697;28;20192;-76
2021/12/20 01:34:27;;;;;;;24.98;4.10;;;;;;;5.09;100.00;102518.78;4977318;28;20105;-77
2021/12/20 01:36:55;;;;;;;26.80;4.47;;;;;;;5.17;100.00;102559.47;4979706;28;20462;-76
2021/12/20 01:39:22;;;;;;;30.98;4.63;;;;;;;4.84;100.00;102513.56;4979431;28;20033;-77
2021/12/20 01:41:51;;;;;;;31.80;5.50;;;;;;;5.27;100.00;102569.63;4977780;28;20023;-76
2021/12/20 01:44:17;;;;;;;27.88;4.75;;;;;;;5.34;100.00;102521.38;4978776;28;20030;-75
2021/12/20 01:46:43;;;;;;;30.95;4.82;;;;;;;5.56;100.00;102556.28;4978383;28;20027;-76
2021/12/20 01:49:14;;;;;;;32.30;5.57;;;;;;;5.30;100.00;102506.66;4944392;28;20485;-76
2021/12/20 01:52:03;;;;;;;34.60;5.20;;;;;;;5.31;100.00;102530.16;4943265;28;20069;-76
2021/12/20 01:54:31;;;;;;;26.80;4.22;;;;;;;5.50;100.00;102534.75;4976094;28;20034;-76
2021/12/20 01:56:56;;;;;;;23.70;4.00;;;;;;;5.72;100.00;102532.97;4976914;28;20026;-76
2021/12/20 01:59:23;;;;;;;23.20;3.28;;;;;;;5.69;100.00;102520.00;4943208;28;20085;-76
2021/12/20 02:01:50;;;;;;;28.30;3.50;;;;;;;5.43;100.00;102527.09;4975043;28;20030;-75
2021/12/20 02:04:15;;;;;;;24.17;3.10;;;;;;;5.57;100.00;102515.25;4976067;28;20029;-75
2021/12/20 02:06:46;;;;;;;27.27;3.80;;;;;;;5.49;100.00;102539.09;4958919;28;20022;-75
2021/12/20 02:09:14;;;;;;;23.05;3.60;;;;;;;5.56;100.00;102537.94;4942939;28;20045;-76
2021/12/20 02:11:46;;;;;;;26.27;4.10;;;;;;;5.48;100.00;102518.22;4958536;28;20367;-75
2021/12/20 02:14:12;;;;;;;29.33;3.95;;;;;;;5.60;100.00;102539.56;4959005;28;20027;-75
2021/12/20 02:16:40;;;;;;;28.40;4.07;;;;;;;5.60;100.00;102544.78;4958583;28;20166;-76
2021/12/20 02:19:13;;;;;;;25.55;3.75;;;;;;;5.68;100.00;102530.53;4958777;28;20027;-76
2021/12/20 02:21:44;;;;;;;29.25;3.50;;;;;;;5.41;100.00;102542.03;4944250;28;20019;-76
2021/12/20 02:24:14;;;;;;;27.45;3.72;;;;;;;5.57;100.00;102541.44;4977792;28;20023;-75
2021/12/20 02:26:39;;;;;;;26.20;3.63;;;;;;;5.65;100.00;102545.50;4962815;28;20038;-75
2021/12/20 02:29:08;;;;;;;26.60;2.92;;;;;;;5.47;100.00;102548.78;4964218;28;20031;-76
2021/12/20 02:37:27;;;;;;;24.08;3.20;;;;;;;5.17;100.00;102520.19;4958869;28;20038;-76
2021/12/20 02:39:54;;;;;;;28.98;3.13;;;;;;;5.34;100.00;102537.06;4974419;28;20039;-75
2021/12/20 02:42:26;;;;;;;26.98;3.28;;;;;;;5.29;100.00;102511.06;4974539;28;20037;-75
2021/12/20 02:45:06;;;;;;;27.65;3.25;;;;;;;5.38;100.00;102533.41;4958590;28;20035;-75
2021/12/20 02:47:32;;;;;;;25.13;3.25;;;;;;;5.28;100.00;102503.25;4958406;28;20031;-75
2021/12/20 02:49:58;;;;;;;24.83;3.25;;;;;;;5.83;100.00;102522.94;4975482;28;20026;-75
2021/12/20 02:52:24;;;;;;;32.75;3.65;;;;;;;5.72;100.00;102524.25;4974111;28;20077;-75
2021/12/20 02:54:50;;;;;;;27.42;3.75;;;;;;;5.67;100.00;102500.84;4975675;28;20026;-76
2021/12/20 02:57:16;;;;;;;29.55;3.35;;;;;;;5.68;100.00;102505.19;4973953;28;20030;-76
2021/12/20 02:59:41;;;;;;;34.55;4.25;;;;;;;5.58;100.00;102514.31;4941765;28;20061;-76
2021/12/20 03:02:13;;;;;;;27.77;4.03;;;;;;;5.70;100.00;102534.84;4958130;28;20426;-77
2021/12/20 03:04:42;;;;;;;29.48;4.40;;;;;;;5.70;100.00;102523.47;4973945;28;20026;-76
2021/12/20 03:07:19;;;;;;;21.02;3.42;;;;;;;5.50;100.00;102477.94;4974913;28;20066;-77
2021/12/20 03:09:51;;;;;;;24.45;4.35;;;;;;;5.17;100.00;102507.09;4941886;28;20413;-76
2021/12/20 03:12:16;;;;;;;18.77;3.35;;;;;;;5.25;100.00;102483.25;4958089;28;20490;-76
2021/12/20 03:14:46;;;;;;;23.75;3.50;;;;;;;5.25;100.00;102508.59;4942897;28;20026;-76
2021/12/20 03:17:12;;;;;;;27.58;4.13;;;;;;;5.23;100.00;102521.75;4958282;28;20093;-76
2021/12/20 03:19:38;;;;;;;25.52;3.42;;;;;;;5.26;100.00;102520.78;4942235;28;20027;-76
2021/12/20 03:22:05;;;;;;;31.67;4.03;;;;;;;5.58;100.00;102527.41;4974954;28;20470;-76
2021/12/20 03:24:31;;;;;;;33.03;3.83;;;;;;;4.93;100.00;102498.41;4957661;28;20030;-76
2021/12/20 03:27:00;;;;;;;25.75;3.65;;;;;;;4.79;100.00;102516.34;4944377;28;20462;-76
2021/12/20 03:29:25;;;;;;;22.33;3.40;;;;;;;5.04;100.00;102516.31;4962041;28;20118;-76
2021/12/20 03:31:56;;;;;;;32.00;3.45;;;;;;;4.99;100.00;102532.19;4961621;28;20113;-77
2021/12/20 03:34:25;;;;;;;19.67;2.78;;;;;;;4.51;100.00;102488.50;4945827;28;20033;-77
2021/12/20 03:36:53;;;;;;;27.42;3.97;;;;;;;4.52;100.00;102476.28;4979068;28;20030;-77
2021/12/20 03:39:19;;;;;;;23.40;3.13;;;;;;;5.26;100.00;102520.78;4961372;28;20023;-76
2021/12/20 03:41:45;;;;;;;25.40;3.65;;;;;;;4.69;100.00;102502.72;4961494;28;20410;-77
2021/12/20 03:44:11;;;;;;;26.15;3.20;;;;;;;4.81;100.00;102489.22;4978587;28;20115;-77
2021/12/20 03:46:39;;;;;;;24.50;3.90;;;;;;;5.26;100.00;102532.09;4978457;28;20027;-76
2021/12/20 03:49:06;;;;;;;20.40;3.30;;;;;;;5.26;100.00;102536.50;4944590;28;20023;-76
2021/12/20 03:51:32;;;;;;;24.70;3.85;;;;;;;5.05;100.00;102525.91;4978184;28;20480;-76
2021/12/20 03:53:58;;;;;;;35.55;4.95;;;;;;;4.68;100.00;102497.53;4978812;28;20027;-76
2021/12/20 03:56:23;;;;;;;33.03;5.28;;;;;;;5.06;100.00;102501.41;4945687;28;20031;-76
2021/12/20 03:58:49;;;;;;;25.05;4.57;;;;;;;4.97;100.00;102486.03;4960939;28;20035;-76
2021/12/20 04:01:15;;;;;;;34.22;5.35;;;;;;;5.14;100.00;102478.41;4945341;28;20018;-76
2021/12/20 04:03:41;;;;;;;38.20;5.35;;;;;;;5.40;100.00;102479.19;4979484;28;20367;-76
2021/12/20 04:06:11;;;;;;;31.02;4.97;;;;;;;4.57;100.00;102477.00;4963999;28;20370;-76
2021/12/20 04:08:36;;;;;;;30.92;5.22;;;;;;;4.50;100.00;102492.06;4944434;28;20093;-78
2021/12/20 04:11:03;;;;;;;25.23;3.42;;;;;;;4.88;100.00;102513.38;4945122;28;20027;-76
2021/12/20 04:13:32;;;;;;;25.70;3.85;;;;;;;4.73;100.00;102508.72;4968842;28;20516;-76
2021/12/20 04:16:01;;;;;;;22.77;4.13;;;;;;;4.78;100.00;102528.56;4962407;28;20027;-76
2021/12/20 04:18:28;;;;;;;29.58;4.85;;;;;;;4.89;100.00;102524.75;4997100;28;20038;-76
2021/12/20 04:20:54;;;;;;;35.97;5.05;;;;;;;4.74;100.00;102479.00;4996489;28;20121;-75
2021/12/20 04:23:20;;;;;;;24.45;4.63;;;;;;;5.00;100.00;102520.81;4987141;28;20481;-76
2021/12/20 04:25:46;;;;;;;28.95;4.28;;;;;;;4.70;100.00;102535.84;4973786;28;20087;-75
2021/12/20 04:28:30;;;;;;;30.85;4.40;;;;;;;5.18;100.00;102518.47;4982697;28;20033;-77
2021/12/20 04:31:08;;;;;;;31.17;4.30;;;;;;;5.17;100.00;102535.06;4989870;28;20018;-76
2021/12/20 04:33:33;;;;;;;28.90;5.18;;;;;;;5.08;100.00;102536.25;4989244;28;20283;-76
2021/12/20 04:35:59;;;;;;;32.15;5.88;;;;;;;4.73;100.00;102483.41;4968656;28;20030;-76
2021/12/20 04:38:27;;;;;;;33.60;5.60;;;;;;;5.18;100.00;102493.13;5004163;28;20118;-76
2021/12/20 04:40:53;;;;;;;29.33;4.97;;;;;;;4.79;100.00;102506.75;4982323;28;20066;-77
2021/12/20 04:43:19;;;;;;;23.88;3.80;;;;;;;4.94;100.00;102489.63;4998707;28;20109;-76
2021/12/20 04:45:45;;;;;;;29.10;3.85;;;;;;;5.03;100.00;102531.19;4980668;28;20033;-77
2021/12/20 04:48:13;;;;;;;20.25;4.03;;;;;;;5.17;100.00;102522.81;4980445;28;20084;-75
2021/12/20 04:50:42;;;;;;;28.08;5.10;;;;;;;4.85;100.00;102503.03;4963675;28;20480;-74
2021/12/20 04:53:08;;;;;;;31.48;4.57;;;;;;;4.87;100.00;102455.88;4996941;28;20066;-75
2021/12/20 05:20:15;;;;;;;14.80;2.28;;;;;;;4.69;100.00;102515.81;5133314;27;20925;-76
